Time;durP1;ratioP1;P1;durP2;ratioP2;P2;SDS_P1;SDS_P2;PMS_P1;PMS_P2;Temp;Humidity;BMP_temperature;BMP_pressure;BME280_temperature;BME280_humidity;BME280_pressure;Samples;Min_cycle;Max_cycle;Signal;HPM_P1;HPM_P2
2022/06/17 00:00:29;;;;;;;7.25;4.10;;;;;;;;;;5059409;28;20032;-60
2022/06/17 00:02:56;;;;;;;9.30;3.88;;;;;;;;;;5069540;28;20066;-60
2022/06/17 00:05:22;;;;;;;8.23;3.88;;;;;;;;;;5068351;28;20074;-59
2022/06/17 00:07:48;;;;;;;8.77;4.30;;;;;;;;;;5055360;28;20017;-60
2022/06/17 00:10:25;;;;;;;6.38;4.22;;;;;;;;;;5065629;28;20488;-59
2022/06/17 00:12:51;;;;;;;8.70;4.05;;;;;;;;;;5052870;28;20394;-59
2022/06/17 00:15:17;;;;;;;10.18;3.95;;;;;;;;;;5066907;28;20508;-60
2022/06/17 00:17:49;;;;;;;5.70;4.22;;;;;;;;;;5055673;28;20085;-60
2022/06/17 00:20:18;;;;;;;9.88;4.00;;;;;;;;;;5065970;28;20436;-59
2022/06/17 00:22:45;;;;;;;9.48;4.00;;;;;;;;;;5062374;28;20086;-60
2022/06/17 00:25:15;;;;;;;11.32;4.30;;;;;;;;;;5057906;28;20044;-60
2022/06/17 00:27:41;;;;;;;10.30;5.43;;;;;;;;;;5068050;28;20179;-60
2022/06/17 00:30:14;;;;;;;9.63;3.90;;;;;;;;;;5057074;28;20016;-59
2022/06/17 00:32:40;;;;;;;11.55;4.35;;;;;;;;;;5061876;28;20025;-59
2022/06/17 00:35:07;;;;;;;7.70;4.18;;;;;;;;;;5063816;28;20085;-59
2022/06/17 00:37:33;;;;;;;8.30;4.38;;;;;;;;;;5069828;28;20032;-60
2022/06/17 00:39:59;;;;;;;9.68;3.83;;;;;;;;;;5066554;28;20049;-59
2022/06/17 00:42:25;;;;;;;6.97;4.57;;;;;;;;;;5051221;28;20056;-59
2022/06/17 00:45:02;;;;;;;7.47;4.43;;;;;;;;;;5050339;28;20068;-59
2022/06/17 00:47:34;;;;;;;11.20;4.22;;;;;;;;;;5051646;28;20059;-60
2022/06/17 00:50:21;;;;;;;7.30;3.73;;;;;;;;;;5051615;28;20025;-59
2022/06/17 00:52:58;;;;;;;6.57;4.03;;;;;;;;;;5061666;28;20032;-59
2022/06/17 00:55:30;;;;;;;8.88;4.25;;;;;;;;;;5069359;28;20033;-59
2022/06/17 00:57:57;;;;;;;9.00;3.92;;;;;;;;;;5053257;28;20416;-60
2022/06/17 01:00:25;;;;;;;9.30;4.07;;;;;;;;;;5063557;28;20031;-59
2022/06/17 01:02:57;;;;;;;9.65;4.53;;;;;;;;;;5066289;28;20032;-60
2022/06/17 01:05:27;;;;;;;9.63;3.70;;;;;;;;;;5055099;28;20044;-59
2022/06/17 01:08:05;;;;;;;8.88;4.15;;;;;;;;;;5067686;28;20021;-59
2022/06/17 01:10:31;;;;;;;6.35;3.90;;;;;;;;;;5057920;28;20042;-59
2022/06/17 01:13:03;;;;;;;9.10;3.58;;;;;;;;;;5059279;28;20048;-59
2022/06/17 01:15:34;;;;;;;6.88;4.38;;;;;;;;;;5056151;28;20037;-59
2022/06/17 01:18:01;;;;;;;5.47;3.05;;;;;;;;;;5070310;28;20115;-59
2022/06/17 01:20:28;;;;;;;6.22;3.90;;;;;;;;;;5062310;28;20021;-60
2022/06/17 01:22:59;;;;;;;10.20;4.25;;;;;;;;;;5063075;28;20028;-59
2022/06/17 01:25:25;;;;;;;8.35;4.10;;;;;;;;;;5068933;28;20056;-59
2022/06/17 01:28:03;;;;;;;8.65;3.97;;;;;;;;;;5057770;28;20033;-59
2022/06/17 01:30:34;;;;;;;9.60;3.78;;;;;;;;;;5068120;28;20025;-59
2022/06/17 01:33:21;;;;;;;6.72;3.55;;;;;;;;;;5064828;28;20033;-59
2022/06/17 01:35:51;;;;;;;11.80;3.72;;;;;;;;;;5071965;28;20074;-59
2022/06/17 01:38:17;;;;;;;8.10;3.65;;;;;;;;;;5060496;28;20043;-59
2022/06/17 01:40:43;;;;;;;5.63;3.53;;;;;;;;;;5064678;28;20516;-59
2022/06/17 01:43:12;;;;;;;7.30;3.83;;;;;;;;;;5054709;28;20031;-59
2022/06/17 01:45:41;;;;;;;5.75;3.78;;;;;;;;;;5069884;28;20032;-59
2022/06/17 01:48:09;;;;;;;6.90;4.00;;;;;;;;;;5057130;28;20043;-59
2022/06/17 01:50:36;;;;;;;10.30;4.20;;;;;;;;;;5066184;28;20173;-59
2022/06/17 01:53:05;;;;;;;8.95;4.47;;;;;;;;;;5057525;28;20025;-59
2022/06/17 01:55:40;;;;;;;7.05;4.20;;;;;;;;;;5068206;28;20059;-59
2022/06/17 01:58:16;;;;;;;8.32;4.03;;;;;;;;;;5056633;28;20045;-59
2022/06/17 02:00:43;;;;;;;10.50;4.88;;;;;;;;;;5066193;28;20107;-59
2022/06/17 02:03:19;;;;;;;6.15;4.07;;;;;;;;;;5072530;28;20492;-59
2022/06/17 02:05:48;;;;;;;8.10;3.95;;;;;;;;;;5057561;28;20025;-59
2022/06/17 02:08:14;;;;;;;5.57;3.60;;;;;;;;;;5070789;28;20020;-59
2022/06/17 02:10:45;;;;;;;10.35;3.97;;;;;;;;;;5060713;28;20044;-59
2022/06/17 02:13:12;;;;;;;12.27;3.83;;;;;;;;;;5069310;28;20043;-59
2022/06/17 02:15:57;;;;;;;6.25;3.47;;;;;;;;;;5056112;28;20514;-59
2022/06/17 02:18:43;;;;;;;7.32;3.47;;;;;;;;;;5066724;28;20029;-59
2022/06/17 02:21:28;;;;;;;5.68;3.83;;;;;;;;;;5059912;28;20028;-59
2022/06/17 02:23:54;;;;;;;9.30;3.72;;;;;;;;;;5069957;28;20048;-59
2022/06/17 02:26:21;;;;;;;6.97;3.20;;;;;;;;;;5055978;28;20025;-59
2022/06/17 02:28:47;;;;;;;7.32;3.28;;;;;;;;;;5064565;28;20025;-59
2022/06/17 02:31:15;;;;;;;8.52;3.90;;;;;;;;;;5059800;28;20017;-59
2022/06/17 02:33:42;;;;;;;6.25;3.45;;;;;;;;;;5069559;28;20028;-59
2022/06/17 02:36:11;;;;;;;7.13;3.58;;;;;;;;;;5055317;28;20020;-60
2022/06/17 02:38:38;;;;;;;5.97;3.42;;;;;;;;;;5065876;28;20044;-59
2022/06/17 02:41:06;;;;;;;6.93;3.65;;;;;;;;;;5056861;28;20040;-59
2022/06/17 02:43:41;;;;;;;5.97;3.42;;;;;;;;;;5068097;28;20032;-59
2022/06/17 02:46:12;;;;;;;7.75;3.10;;;;;;;;;;5056658;28;20055;-59
2022/06/17 02:48:42;;;;;;;4.93;3.58;;;;;;;;;;5065794;28;20025;-59
2022/06/17 02:51:11;;;;;;;8.15;4.13;;;;;;;;;;5062808;28;20039;-59
2022/06/17 02:53:38;;;;;;;6.53;3.17;;;;;;;;;;5071100;28;20016;-59
2022/06/17 02:56:14;;;;;;;6.60;3.55;;;;;;;;;;5055311;28;20031;-59
2022/06/17 02:58:45;;;;;;;8.65;4.72;;;;;;;;;;5066942;28;20432;-59
2022/06/17 03:01:16;;;;;;;3.95;3.05;;;;;;;;;;5062534;28;20021;-59
2022/06/17 03:03:43;;;;;;;5.65;3.35;;;;;;;;;;5073027;28;20039;-59
2022/06/17 03:06:22;;;;;;;8.98;3.53;;;;;;;;;;5053748;28;20020;-59
2022/06/17 03:08:50;;;;;;;5.65;3.63;;;;;;;;;;5059132;28;20560;-59
2022/06/17 03:11:17;;;;;;;7.53;3.58;;;;;;;;;;5060458;28;20028;-59
2022/06/17 03:13:54;;;;;;;6.15;3.67;;;;;;;;;;5066981;28;20115;-59
2022/06/17 03:16:23;;;;;;;6.25;3.25;;;;;;;;;;5064780;28;20021;-59
2022/06/17 03:18:49;;;;;;;5.93;3.53;;;;;;;;;;5067536;28;20028;-59
2022/06/17 03:21:20;;;;;;;9.45;3.65;;;;;;;;;;5062955;28;20040;-59
2022/06/17 03:23:50;;;;;;;8.15;3.80;;;;;;;;;;5059496;28;20486;-59
2022/06/17 03:26:18;;;;;;;6.15;3.15;;;;;;;;;;5068417;28;20037;-59
2022/06/17 03:28:48;;;;;;;7.63;3.45;;;;;;;;;;5062459;28;20016;-59
2022/06/17 03:31:35;;;;;;;5.40;3.50;;;;;;;;;;5065815;28;20021;-59
2022/06/17 03:34:05;;;;;;;8.13;4.00;;;;;;;;;;5051595;28;20033;-60
2022/06/17 03:36:34;;;;;;;5.25;3.40;;;;;;;;;;5065346;28;20060;-59
2022/06/17 03:39:03;;;;;;;4.60;3.38;;;;;;;;;;5059866;28;20115;-59
2022/06/17 03:41:37;;;;;;;6.50;3.40;;;;;;;;;;5068472;28;20587;-59
2022/06/17 03:44:06;;;;;;;7.18;3.22;;;;;;;;;;5067213;28;20085;-60
2022/06/17 03:46:36;;;;;;;6.88;3.38;;;;;;;;;;5060183;28;20480;-59
2022/06/17 03:49:07;;;;;;;7.63;3.42;;;;;;;;;;5056225;28;20061;-60
2022/06/17 03:51:36;;;;;;;6.60;3.47;;;;;;;;;;5063426;28;20067;-59
2022/06/17 03:54:04;;;;;;;6.00;3.58;;;;;;;;;;5054431;28;20024;-59
2022/06/17 03:56:33;;;;;;;6.40;3.70;;;;;;;;;;5054398;28;20107;-60
2022/06/17 03:59:03;;;;;;;9.13;3.42;;;;;;;;;;5063469;28;20482;-60
2022/06/17 04:01:32;;;;;;;5.35;3.15;;;;;;;;;;5054642;28;20033;-60
2022/06/17 04:04:09;;;;;;;5.95;3.38;;;;;;;;;;5068382;28;20071;-60
2022/06/17 04:06:38;;;;;;;5.15;3.03;;;;;;;;;;5054797;28;20449;-60
2022/06/17 04:09:14;;;;;;;6.50;3.47;;;;;;;;;;5063480;28;20483;-60
2022/06/17 04:11:44;;;;;;;7.07;3.58;;;;;;;;;;5055392;28;20064;-60
2022/06/17 04:14:17;;;;;;;10.85;3.70;;;;;;;;;;5067446;28;20483;-60
2022/06/17 04:16:43;;;;;;;9.33;3.20;;;;;;;;;;5057560;28;20104;-60
2022/06/17 04:19:17;;;;;;;8.43;3.55;;;;;;;;;;5062554;28;20104;-60
2022/06/17 04:21:51;;;;;;;5.38;3.83;;;;;;;;;;5062313;28;20408;-60
2022/06/17 04:24:23;;;;;;;6.32;3.58;;;;;;;;;;5054289;28;20032;-60
2022/06/17 04:26:59;;;;;;;7.07;3.20;;;;;;;;;;5065020;28;20029;-60
2022/06/17 04:29:43;;;;;;;6.97;3.35;;;;;;;;;;5061424;28;20028;-60
2022/06/17 04:32:19;;;;;;;6.07;3.40;;;;;;;;;;5058930;28;20116;-60
2022/06/17 04:34:47;;;;;;;6.25;3.55;;;;;;;;;;5064970;28;20037;-60
2022/06/17 04:37:20;;;;;;;9.48;3.25;;;;;;;;;;5070649;28;20025;-60
2022/06/17 04:40:28;;;;;;;9.13;3.83;;;;;;;;;;5050140;28;20040;-60
2022/06/17 04:43:09;;;;;;;9.88;3.30;;;;;;;;;;5051374;28;20417;-60
2022/06/17 04:45:36;;;;;;;6.45;3.55;;;;;;;;;;5062462;28;20039;-60
2022/06/17 04:48:05;;;;;;;9.98;3.88;;;;;;;;;;5072067;28;20103;-60
2022/06/17 04:50:31;;;;;;;9.57;3.90;;;;;;;;;;5069782;28;20063;-60
2022/06/17 04:52:58;;;;;;;12.55;3.80;;;;;;;;;;5060241;28;20361;-60
2022/06/17 04:55:57;;;;;;;10.60;3.83;;;;;;;;;;5044860;28;20440;-60
2022/06/17 04:58:38;;;;;;;12.20;4.07;;;;;;;;;;5054844;28;20060;-60
2022/06/17 05:01:17;;;;;;;14.40;4.63;;;;;;;;;;5056630;28;20025;-60
2022/06/17 05:04:06;;;;;;;9.60;3.90;;;;;;;;;;5060282;28;20032;-60
2022/06/17 05:06:36;;;;;;;8.80;4.10;;;;;;;;;;5057304;28;20033;-60
2022/06/17 05:09:07;;;;;;;9.75;4.20;;;;;;;;;;5064774;28;20025;-60
2022/06/17 05:11:35;;;;;;;9.82;3.70;;;;;;;;;;5055990;28;20032;-60
2022/06/17 05:14:08;;;;;;;11.10;4.60;;;;;;;;;;5054067;28;20033;-60
2022/06/17 05:16:34;;;;;;;15.35;4.10;;;;;;;;;;5066955;28;20032;-60
2022/06/17 05:19:01;;;;;;;8.02;4.20;;;;;;;;;;5052369;28;20028;-60
2022/06/17 05:21:27;;;;;;;11.25;4.10;;;;;;;;;;5055285;28;20021;-60
2022/06/17 05:24:09;;;;;;;12.05;3.80;;;;;;;;;;5058266;28;20492;-60
2022/06/17 05:26:35;;;;;;;12.68;4.15;;;;;;;;;;5060749;28;20320;-60
2022/06/17 05:29:02;;;;;;;14.20;4.15;;;;;;;;;;5055146;28;20049;-60
2022/06/17 05:31:32;;;;;;;11.27;3.80;;;;;;;;;;5058395;28;20484;-60
2022/06/17 05:34:02;;;;;;;11.45;4.03;;;;;;;;;;5058300;28;20020;-60
2022/06/17 05:36:29;;;;;;;8.43;3.75;;;;;;;;;;5064901;28;20488;-60
2022/06/17 05:38:56;;;;;;;6.95;3.83;;;;;;;;;;5061118;28;20029;-69
2022/06/17 05:41:24;;;;;;;9.27;4.45;;;;;;;;;;5060418;28;20480;-61
2022/06/17 05:43:52;;;;;;;14.63;4.15;;;;;;;;;;5055628;28;20013;-61
2022/06/17 05:46:38;;;;;;;8.82;3.60;;;;;;;;;;5062199;28;20087;-60
2022/06/17 05:49:25;;;;;;;9.63;4.38;;;;;;;;;;5069627;28;20036;-61
2022/06/17 05:51:59;;;;;;;8.43;3.38;;;;;;;;;;5069026;28;20028;-61
2022/06/17 05:54:30;;;;;;;6.07;3.60;;;;;;;;;;5061607;28;20086;-61
2022/06/17 05:57:05;;;;;;;9.43;3.55;;;;;;;;;;5057418;28;20036;-60
2022/06/17 05:59:32;;;;;;;7.07;3.58;;;;;;;;;;5079258;28;20117;-61
2022/06/17 06:01:58;;;;;;;15.00;4.07;;;;;;;;;;5060806;28;20043;-61
2022/06/17 06:04:57;;;;;;;9.43;3.92;;;;;;;;;;5058903;28;20091;-60
2022/06/17 06:07:25;;;;;;;12.50;5.20;;;;;;;;;;5066499;28;20573;-60
2022/06/17 06:09:52;;;;;;;10.00;4.43;;;;;;;;;;5059131;28;20481;-61
2022/06/17 06:12:18;;;;;;;8.38;4.00;;;;;;;;;;5061113;28;20095;-61
2022/06/17 06:14:45;;;;;;;6.95;3.47;;;;;;;;;;5060427;28;20045;-61
2022/06/17 06:17:12;;;;;;;9.00;4.13;;;;;;;;;;5063966;28;20071;-60
2022/06/17 06:19:38;;;;;;;8.43;4.18;;;;;;;;;;5064317;28;20071;-61
2022/06/17 06:22:04;;;;;;;10.32;4.13;;;;;;;;;;5055922;28;20033;-60
2022/06/17 06:24:31;;;;;;;13.95;4.90;;;;;;;;;;5056087;28;20602;-61
2022/06/17 06:26:57;;;;;;;10.95;4.30;;;;;;;;;;5058150;28;20032;-60
2022/06/17 06:29:34;;;;;;;11.20;3.95;;;;;;;;;;5060621;28;20029;-61
2022/06/17 06:32:00;;;;;;;8.50;4.28;;;;;;;;;;5052130;28;20036;-61
2022/06/17 06:34:53;;;;;;;9.25;4.40;;;;;;;;;;5056305;28;20033;-61
2022/06/17 06:37:19;;;;;;;15.98;4.32;;;;;;;;;;5059827;28;20036;-61
2022/06/17 06:39:46;;;;;;;10.45;4.20;;;;;;;;;;5062243;28;20075;-61
2022/06/17 06:42:12;;;;;;;7.82;4.30;;;;;;;;;;5074947;28;20032;-61
2022/06/17 06:44:58;;;;;;;9.88;3.75;;;;;;;;;;5055374;28;20070;-61
2022/06/17 06:47:27;;;;;;;16.40;4.45;;;;;;;;;;5065426;28;20028;-61
2022/06/17 06:49:58;;;;;;;11.65;4.18;;;;;;;;;;5060413;28;20218;-61
2022/06/17 06:52:25;;;;;;;8.70;3.92;;;;;;;;;;5058381;28;20017;-61
2022/06/17 06:54:52;;;;;;;8.18;4.03;;;;;;;;;;5059445;28;20064;-61
2022/06/17 06:57:19;;;;;;;10.38;4.00;;;;;;;;;;5061828;28;20032;-61
2022/06/17 06:59:46;;;;;;;17.17;3.45;;;;;;;;;;5056002;28;20056;-61
2022/06/17 07:02:12;;;;;;;25.65;4.20;;;;;;;;;;5075225;28;20055;-61
2022/06/17 07:04:38;;;;;;;11.18;3.25;;;;;;;;;;5066419;28;20021;-61
2022/06/17 07:07:05;;;;;;;12.68;3.90;;;;;;;;;;5062267;28;20028;-61
2022/06/17 07:09:31;;;;;;;8.57;4.13;;;;;;;;;;5061348;28;20033;-61
2022/06/17 07:11:57;;;;;;;12.20;3.55;;;;;;;;;;5068300;28;20154;-61
2022/06/17 07:14:23;;;;;;;7.15;2.97;;;;;;;;;;5067475;28;20028;-61
2022/06/17 07:16:49;;;;;;;8.38;3.58;;;;;;;;;;5061530;28;20028;-61
2022/06/17 07:19:19;;;;;;;11.65;3.65;;;;;;;;;;5061297;28;20108;-61
2022/06/17 07:21:46;;;;;;;6.40;3.05;;;;;;;;;;5054055;28;20037;-61
2022/06/17 07:24:13;;;;;;;9.68;3.33;;;;;;;;;;5059954;28;20541;-61
2022/06/17 07:26:39;;;;;;;7.20;3.55;;;;;;;;;;5060217;28;20064;-61
2022/06/17 07:29:05;;;;;;;7.93;2.60;;;;;;;;;;5066402;28;20032;-61
2022/06/17 07:31:31;;;;;;;12.90;3.17;;;;;;;;;;5067628;28;20032;-61
2022/06/17 07:33:57;;;;;;;6.75;2.90;;;;;;;;;;5063052;28;20025;-61
2022/06/17 07:41:56;;;;;;;7.97;3.45;;;;;;;;;;5068183;28;20024;-61
2022/06/17 07:44:23;;;;;;;4.22;3.22;;;;;;;;;;5064257;28;20028;-61
2022/06/17 07:46:49;;;;;;;7.72;3.10;;;;;;;;;;5063294;28;20021;-61
2022/06/17 07:49:15;;;;;;;5.72;2.90;;;;;;;;;;5061139;28;20036;-61
2022/06/17 07:51:41;;;;;;;6.50;3.00;;;;;;;;;;5066719;28;20529;-61
2022/06/17 07:54:07;;;;;;;6.15;3.10;;;;;;;;;;5069181;28;20035;-61
2022/06/17 07:56:34;;;;;;;6.72;3.03;;;;;;;;;;5060443;28;20105;-61
2022/06/17 07:59:01;;;;;;;6.85;2.72;;;;;;;;;;5069057;28;20048;-61
2022/06/17 08:01:27;;;;;;;7.72;3.33;;;;;;;;;;5059558;28;20041;-61
2022/06/17 08:03:53;;;;;;;9.38;2.92;;;;;;;;;;5052480;28;20020;-61
2022/06/17 08:06:19;;;;;;;11.23;2.90;;;;;;;;;;5067130;28;20103;-61
2022/06/17 08:08:46;;;;;;;7.70;2.63;;;;;;;;;;5067564;28;20017;-61
2022/06/17 08:11:12;;;;;;;13.02;3.17;;;;;;;;;;5068511;28;20668;-61
2022/06/17 08:13:39;;;;;;;13.80;2.80;;;;;;;;;;5060189;28;20117;-61
2022/06/17 08:16:06;;;;;;;9.63;2.90;;;;;;;;;;5059305;28;20028;-61
2022/06/17 08:18:33;;;;;;;10.32;2.95;;;;;;;;;;5059522;28;20542;-61
2022/06/17 08:21:00;;;;;;;4.57;2.60;;;;;;;;;;5060240;28;20062;-61
2022/06/17 08:23:26;;;;;;;4.80;2.47;;;;;;;;;;5055908;28;20439;-61
2022/06/17 08:25:52;;;;;;;5.20;2.53;;;;;;;;;;5062958;28;20044;-61
2022/06/17 08:28:19;;;;;;;5.88;2.50;;;;;;;;;;5062979;28;20028;-61
2022/06/17 08:30:47;;;;;;;6.95;2.92;;;;;;;;;;5058193;28;20025;-61
2022/06/17 08:33:14;;;;;;;8.38;3.33;;;;;;;;;;5064468;28;20024;-61
2022/06/17 08:35:45;;;;;;;12.35;2.88;;;;;;;;;;5056671;28;20103;-61
2022/06/17 08:38:22;;;;;;;10.00;3.33;;;;;;;;;;5063156;28;20035;-61
2022/06/17 08:40:54;;;;;;;8.50;2.55;;;;;;;;;;5065142;28;20043;-61
2022/06/17 08:43:32;;;;;;;4.10;2.67;;;;;;;;;;5068830;28;20036;-61
2022/06/17 08:46:02;;;;;;;9.23;2.83;;;;;;;;;;5059296;28;20028;-61
2022/06/17 08:48:46;;;;;;;8.75;2.60;;;;;;;;;;5064340;28;20024;-61
2022/06/17 08:51:24;;;;;;;6.72;2.80;;;;;;;;;;5063277;28;20029;-61
2022/06/17 08:54:08;;;;;;;4.78;2.30;;;;;;;;;;5053706;28;20061;-61
2022/06/17 08:56:34;;;;;;;9.63;2.58;;;;;;;;;;5056541;28;20032;-61
2022/06/17 08:59:17;;;;;;;7.88;2.30;;;;;;;;;;5070797;28;20052;-61
2022/06/17 09:01:46;;;;;;;8.25;2.72;;;;;;;;;;5056942;28;20025;-61
2022/06/17 09:04:31;;;;;;;6.55;2.60;;;;;;;;;;5059202;28;20480;-61
2022/06/17 09:07:03;;;;;;;5.75;2.60;;;;;;;;;;5056980;28;20374;-61
2022/06/17 09:09:42;;;;;;;11.85;2.55;;;;;;;;;;5068103;28;20041;-61
2022/06/17 09:12:24;;;;;;;9.32;2.47;;;;;;;;;;5052078;28;20516;-61
2022/06/17 09:14:56;;;;;;;7.18;3.33;;;;;;;;;;5059507;28;20366;-61
2022/06/17 09:17:23;;;;;;;7.03;2.80;;;;;;;;;;5055853;28;20036;-61
2022/06/17 09:19:51;;;;;;;9.95;2.63;;;;;;;;;;5057682;28;20035;-61
2022/06/17 09:22:26;;;;;;;3.42;2.60;;;;;;;;;;5063126;28;20032;-61
2022/06/17 09:24:52;;;;;;;7.05;2.95;;;;;;;;;;5060065;28;20116;-61
2022/06/17 09:27:24;;;;;;;8.18;2.88;;;;;;;;;;5059516;28;20075;-61
2022/06/17 09:29:59;;;;;;;6.70;2.58;;;;;;;;;;5051924;28;20115;-61
2022/06/17 09:32:29;;;;;;;7.95;3.45;;;;;;;;;;5062383;28;20400;-61
2022/06/17 09:35:05;;;;;;;18.63;3.42;;;;;;;;;;5062230;28;20531;-61
2022/06/17 09:37:37;;;;;;;25.60;4.47;;;;;;;;;;5064433;28;20028;-61
2022/06/17 09:40:06;;;;;;;8.93;2.77;;;;;;;;;;5065224;28;20118;-61
2022/06/17 09:42:36;;;;;;;5.95;3.08;;;;;;;;;;5063965;28;20336;-61
2022/06/17 09:45:11;;;;;;;14.88;3.88;;;;;;;;;;5062733;28;20029;-61
2022/06/17 09:47:40;;;;;;;17.73;4.18;;;;;;;;;;5062325;28;20419;-61
2022/06/17 09:50:06;;;;;;;8.48;3.15;;;;;;;;;;5070257;28;20025;-61
2022/06/17 09:52:34;;;;;;;12.23;2.70;;;;;;;;;;5064352;28;20024;-61
2022/06/17 09:55:03;;;;;;;8.55;2.95;;;;;;;;;;5061706;28;20055;-61
2022/06/17 09:57:43;;;;;;;8.15;2.67;;;;;;;;;;5065553;28;20066;-61
2022/06/17 10:00:12;;;;;;;9.10;2.90;;;;;;;;;;5063678;28;20404;-61
2022/06/17 10:02:50;;;;;;;5.43;2.67;;;;;;;;;;5057007;28;20460;-61
2022/06/17 10:05:28;;;;;;;8.05;3.38;;;;;;;;;;5064009;28;20090;-61
2022/06/17 10:07:58;;;;;;;10.75;3.47;;;;;;;;;;5060981;28;20107;-60
2022/06/17 10:10:30;;;;;;;10.55;3.13;;;;;;;;;;5057385;28;20485;-60
2022/06/17 10:13:15;;;;;;;6.30;3.17;;;;;;;;;;5061676;28;20040;-60
2022/06/17 10:18:31;;;;;;;3.90;2.90;;;;;;;;;;5058478;28;20035;-60
2022/06/17 10:18:42;;;;;;;7.13;3.00;;;;;;;;;;5060046;28;20028;-60
2022/06/17 10:21:28;;;;;;;7.13;3.03;;;;;;;;;;5057436;28;20033;-61
2022/06/17 10:24:00;;;;;;;7.35;2.63;;;;;;;;;;5057490;28;20510;-60
2022/06/17 10:26:33;;;;;;;13.02;3.30;;;;;;;;;;5062208;28;20127;-60
2022/06/17 10:29:05;;;;;;;10.95;3.63;;;;;;;;;;5075778;28;20060;-60
2022/06/17 10:31:35;;;;;;;42.17;6.75;;;;;;;;;;5061405;28;20040;-61
2022/06/17 10:34:07;;;;;;;7.55;3.13;;;;;;;;;;5061071;28;20504;-60
2022/06/17 10:36:33;;;;;;;8.82;3.22;;;;;;;;;;5060449;28;20111;-60
2022/06/17 10:39:02;;;;;;;6.70;2.95;;;;;;;;;;5060113;28;20036;-60
2022/06/17 10:41:28;;;;;;;6.95;3.00;;;;;;;;;;5060460;28;20572;-60
2022/06/17 10:43:54;;;;;;;6.95;2.92;;;;;;;;;;5061299;28;20028;-60
2022/06/17 10:46:26;;;;;;;7.30;2.72;;;;;;;;;;5056883;28;20020;-60
2022/06/17 10:48:52;;;;;;;6.80;3.03;;;;;;;;;;5060473;28;20082;-61
2022/06/17 10:51:19;;;;;;;8.55;2.80;;;;;;;;;;5056178;28;20477;-61
2022/06/17 10:53:59;;;;;;;7.65;2.95;;;;;;;;;;5059889;28;20021;-60
2022/06/17 10:56:26;;;;;;;9.52;3.22;;;;;;;;;;5058660;28;20066;-61
2022/06/17 10:59:00;;;;;;;12.75;3.72;;;;;;;;;;5059566;28;20578;-61
2022/06/17 11:01:46;;;;;;;17.08;3.15;;;;;;;;;;5054650;28;20029;-60
2022/06/17 11:04:16;;;;;;;8.18;3.80;;;;;;;;;;5058516;28;20056;-61
2022/06/17 11:06:51;;;;;;;9.35;3.15;;;;;;;;;;5058687;28;20031;-61
2022/06/17 11:09:23;;;;;;;7.70;3.45;;;;;;;;;;5059872;28;20033;-61
2022/06/17 11:12:04;;;;;;;7.05;3.58;;;;;;;;;;5059790;28;20041;-61
2022/06/17 11:14:45;;;;;;;7.85;3.30;;;;;;;;;;5058123;28;20036;-61
2022/06/17 11:17:14;;;;;;;10.32;3.78;;;;;;;;;;5060590;28;20028;-61
2022/06/17 11:19:41;;;;;;;8.88;3.55;;;;;;;;;;5059246;28;20481;-61
2022/06/17 11:22:15;;;;;;;6.75;3.50;;;;;;;;;;5060225;28;20035;-61
2022/06/17 11:24:42;;;;;;;8.95;3.50;;;;;;;;;;5058998;28;20095;-61
2022/06/17 11:27:15;;;;;;;8.68;3.30;;;;;;;;;;5051861;28;20057;-61
2022/06/17 11:29:45;;;;;;;12.90;3.78;;;;;;;;;;5060730;28;20115;-61
2022/06/17 11:32:13;;;;;;;10.43;3.70;;;;;;;;;;5061199;28;20082;-61
2022/06/17 11:34:47;;;;;;;9.35;3.08;;;;;;;;;;5059901;28;20048;-61
2022/06/17 11:37:16;;;;;;;10.27;3.70;;;;;;;;;;5058305;28;20027;-61
2022/06/17 11:39:42;;;;;;;11.45;3.58;;;;;;;;;;5061608;28;20111;-61
2022/06/17 11:42:19;;;;;;;6.80;3.72;;;;;;;;;;5059644;28;20075;-61
2022/06/17 11:45:02;;;;;;;8.05;3.03;;;;;;;;;;5063309;28;20558;-61
2022/06/17 11:47:29;;;;;;;9.77;3.67;;;;;;;;;;5064260;28;20037;-61
2022/06/17 11:49:58;;;;;;;6.60;3.55;;;;;;;;;;5056318;28;20528;-61
2022/06/17 11:52:35;;;;;;;12.55;3.60;;;;;;;;;;5065326;28;20460;-61
2022/06/17 11:55:02;;;;;;;9.80;3.78;;;;;;;;;;5056525;28;20052;-61
2022/06/17 11:57:30;;;;;;;8.27;3.55;;;;;;;;;;5059757;28;20056;-61
2022/06/17 11:59:58;;;;;;;10.27;3.63;;;;;;;;;;5055017;28;20047;-61
2022/06/17 12:02:24;;;;;;;8.32;3.70;;;;;;;;;;5060202;28;20087;-61
2022/06/17 12:04:51;;;;;;;10.07;3.92;;;;;;;;;;5056975;28;20122;-61
2022/06/17 12:07:36;;;;;;;8.45;4.18;;;;;;;;;;5060845;28;20028;-61
2022/06/17 12:10:02;;;;;;;9.13;4.32;;;;;;;;;;5056387;28;20082;-61
2022/06/17 12:12:29;;;;;;;8.18;4.00;;;;;;;;;;5061579;28;20025;-61
2022/06/17 12:15:21;;;;;;;8.80;4.10;;;;;;;;;;5056144;28;20036;-61
2022/06/17 12:17:48;;;;;;;10.77;3.95;;;;;;;;;;5058653;28;20484;-61
2022/06/17 12:20:21;;;;;;;8.70;4.30;;;;;;;;;;5057400;28;20055;-61
2022/06/17 12:22:54;;;;;;;6.90;3.90;;;;;;;;;;5060149;28;20020;-61
2022/06/17 12:25:39;;;;;;;6.60;3.58;;;;;;;;;;5058179;28;20028;-61
2022/06/17 12:28:17;;;;;;;6.82;3.40;;;;;;;;;;5059777;28;20502;-61
2022/06/17 12:30:50;;;;;;;10.73;4.28;;;;;;;;;;5056534;28;20515;-61
2022/06/17 12:33:25;;;;;;;10.57;3.83;;;;;;;;;;5057690;28;20039;-61
2022/06/17 12:35:56;;;;;;;10.98;3.70;;;;;;;;;;5056828;28;20496;-61
2022/06/17 12:38:40;;;;;;;8.00;4.32;;;;;;;;;;5055758;28;20036;-61
2022/06/17 12:41:18;;;;;;;7.28;3.78;;;;;;;;;;5057441;28;20086;-61
2022/06/17 12:43:50;;;;;;;11.40;4.10;;;;;;;;;;5060230;28;20059;-61
2022/06/17 12:46:20;;;;;;;6.53;3.90;;;;;;;;;;5057740;28;20033;-61
2022/06/17 12:48:46;;;;;;;7.55;3.90;;;;;;;;;;5058201;28;20017;-61
2022/06/17 12:54:18;;;;;;;10.98;3.50;;;;;;;;;;5060103;28;20035;-61
2022/06/17 12:56:44;;;;;;;8.25;3.55;;;;;;;;;;5060661;28;20036;-61
2022/06/17 12:59:32;;;;;;;7.13;3.80;;;;;;;;;;5055656;28;20049;-61
2022/06/17 13:02:01;;;;;;;9.60;3.45;;;;;;;;;;5061001;28;20033;-61
2022/06/17 13:04:47;;;;;;;8.63;4.50;;;;;;;;;;5055905;28;20024;-61
2022/06/17 13:07:36;;;;;;;10.63;3.63;;;;;;;;;;5060931;28;20095;-61
2022/06/17 13:13:05;;;;;;;7.13;3.70;;;;;;;;;;5064522;28;20029;-61
2022/06/17 13:15:34;;;;;;;11.98;3.95;;;;;;;;;;5060083;28;20053;-61
2022/06/17 13:18:05;;;;;;;9.93;3.72;;;;;;;;;;5062831;28;20035;-61
2022/06/17 13:20:52;;;;;;;10.40;3.65;;;;;;;;;;5061199;28;20040;-61
2022/06/17 13:23:22;;;;;;;9.40;4.45;;;;;;;;;;5060475;28;20119;-61
2022/06/17 13:26:06;;;;;;;8.35;3.78;;;;;;;;;;5057271;28;20503;-61
2022/06/17 13:28:35;;;;;;;13.10;4.00;;;;;;;;;;5063221;28;20476;-61
2022/06/17 13:31:04;;;;;;;9.85;3.95;;;;;;;;;;5055833;28;20021;-61
2022/06/17 13:33:36;;;;;;;7.32;3.90;;;;;;;;;;5060260;28;20400;-61
2022/06/17 13:36:02;;;;;;;;;;;;;;;;;;5060433;28;20044;-61
2022/06/17 13:38:34;;;;;;;13.05;3.70;;;;;;;;;;5061308;28;20359;-61
2022/06/17 13:41:07;;;;;;;7.13;3.40;;;;;;;;;;5059735;28;20032;-61
2022/06/17 13:43:46;;;;;;;7.00;3.47;;;;;;;;;;5061763;28;20445;-61
2022/06/17 13:46:26;;;;;;;7.82;3.65;;;;;;;;;;5061201;28;20060;-61
2022/06/17 13:48:55;;;;;;;10.05;4.30;;;;;;;;;;5060299;28;20025;-61
2022/06/17 13:51:27;;;;;;;11.80;3.70;;;;;;;;;;5068617;28;20404;-61
2022/06/17 13:54:02;;;;;;;6.80;3.85;;;;;;;;;;5059614;28;20559;-61
2022/06/17 13:56:53;;;;;;;9.90;3.80;;;;;;;;;;5060015;28;20029;-61
2022/06/17 13:59:34;;;;;;;7.55;3.42;;;;;;;;;;5057929;28;20416;-61
2022/06/17 14:02:17;;;;;;;9.38;3.58;;;;;;;;;;5056923;28;20054;-61
2022/06/17 14:05:01;;;;;;;8.43;3.83;;;;;;;;;;5060118;28;20075;-61
2022/06/17 14:07:45;;;;;;;5.82;3.42;;;;;;;;;;5063479;28;20509;-61
2022/06/17 14:10:30;;;;;;;8.88;3.90;;;;;;;;;;5057539;28;20024;-61
2022/06/17 14:12:56;;;;;;;8.85;3.67;;;;;;;;;;5060022;28;20464;-61
2022/06/17 14:15:31;;;;;;;5.13;3.13;;;;;;;;;;5061274;28;20029;-61
2022/06/17 14:18:00;;;;;;;9.70;3.50;;;;;;;;;;5062196;28;20086;-61
2022/06/17 14:20:30;;;;;;;8.25;3.75;;;;;;;;;;5062188;28;20020;-61
2022/06/17 14:23:16;;;;;;;11.52;4.15;;;;;;;;;;5060394;28;20037;-61
2022/06/17 14:25:47;;;;;;;4.85;3.65;;;;;;;;;;5059784;28;20032;-61
2022/06/17 14:28:29;;;;;;;7.68;3.50;;;;;;;;;;5058557;28;20063;-61
2022/06/17 14:31:28;;;;;;;6.25;3.80;;;;;;;;;;5060277;28;20119;-61
2022/06/17 14:33:54;;;;;;;8.30;3.75;;;;;;;;;;5020220;28;20575;-61
2022/06/17 14:36:38;;;;;;;12.05;4.10;;;;;;;;;;5018878;28;20026;-61
2022/06/17 14:39:09;;;;;;;9.35;3.60;;;;;;;;;;5019028;28;20037;-61
2022/06/17 14:44:27;;;;;;;8.63;3.50;;;;;;;;;;5024366;28;20045;-61
2022/06/17 14:47:12;;;;;;;5.70;3.78;;;;;;;;;;5015919;28;20387;-61
2022/06/17 14:49:40;;;;;;;6.43;3.30;;;;;;;;;;5019832;28;20049;-61
2022/06/17 14:52:33;;;;;;;8.88;3.53;;;;;;;;;;5019450;28;20088;-61
2022/06/17 14:55:00;;;;;;;5.97;3.42;;;;;;;;;;5025001;28;20140;-61
2022/06/17 14:57:27;;;;;;;11.82;4.10;;;;;;;;;;5027896;28;20188;-61
2022/06/17 15:00:08;;;;;;;11.18;3.30;;;;;;;;;;5020997;28;20042;-61
2022/06/17 15:02:37;;;;;;;8.38;3.50;;;;;;;;;;5026532;28;20041;-61
2022/06/17 15:05:04;;;;;;;8.00;3.72;;;;;;;;;;5024760;28;20045;-61
2022/06/17 15:07:36;;;;;;;8.65;3.63;;;;;;;;;;5024900;28;20128;-61
2022/06/17 15:10:17;;;;;;;11.10;3.67;;;;;;;;;;5046302;28;20565;-61
2022/06/17 15:12:49;;;;;;;5.57;3.00;;;;;;;;;;5053545;28;20029;-61
2022/06/17 15:15:17;;;;;;;10.43;3.50;;;;;;;;;;5052849;28;20032;-61
2022/06/17 15:17:45;;;;;;;9.85;3.92;;;;;;;;;;5055445;28;20029;-61
2022/06/17 15:20:14;;;;;;;8.85;3.70;;;;;;;;;;5055283;28;20033;-61
2022/06/17 15:22:46;;;;;;;10.57;3.45;;;;;;;;;;5054817;28;20025;-61